^^
Station Historical Data
Daily Summary for November 12, 2017 Units:  Both    English   Metric
« Previous Day
Next Day »
Daily Weekly Monthly Yearly Custom
  High: Low: Average:
Temperature: TemperatureF °F /  -17.8 °C 58.8 °F /  14.9 °C 74.9 °F /  23.8 °C
Dew Point: DewpointF °F /  -17.8 °C 32.0 °F /  0 °C 41.5 °F /  5.3 °C
Humidity: Humidity% 19% 31%
Wind Speed: WindSpeedMPHmph /  0km/h - 2.1mph /  3.4km/h
Wind Gust: WindSpeedGustMPHmph /  0km/h - -
Wind- - SE
Pressure: PressureIn in /  0 hPa 29.62 in /  1002.9 hPa -
Precipitation: 0.00 in /  0 mm    
Historical Graphs
 
 
Tabular Data for November 12, 2017
Time Temperature Dew Point Pressure Wind Wind Speed Wind Gust Humidity Rainfall Rate (Hourly) solar Conditions
TemperatureF °F /  -17.8 °C DewpointF °F /  -17.8 °C PressureInin /  0hPa Calm     Humidity% HourlyPrecipInin /  0mm SolarRadiationWatts/m^2 W/m2 Conditions
00:04 67.3 °F /  19.6 °C 33.1 °F /  0.6 °C 29.73in /  1006.7hPa Calm     28% 0.00in /  0mm 0.0 W/m2
00:09 67.1 °F /  19.5 °C 32.9 °F /  0.5 °C 29.73in /  1006.7hPa Calm   1.0mph /  1.6km/h 28% 0.00in /  0mm 0.0 W/m2
00:14 66.9 °F /  19.4 °C 32.7 °F /  0.4 °C 29.72in /  1006.3hPa Calm   1.0mph /  1.6km/h 28% 0.00in /  0mm 0.0 W/m2
00:20 66.7 °F /  19.3 °C 32.5 °F /  0.3 °C 29.72in /  1006.3hPa Calm     28% 0.00in /  0mm 0.0 W/m2
00:25 66.7 °F /  19.3 °C 32.5 °F /  0.3 °C 29.72in /  1006.3hPa Calm   1.0mph /  1.6km/h 28% 0.00in /  0mm 0.0 W/m2
00:30 66.6 °F /  19.2 °C 32.4 °F /  0.2 °C 29.72in /  1006.3hPa Calm     28% 0.00in /  0mm 0.0 W/m2
00:35 66.4 °F /  19.1 °C 33.1 °F /  0.6 °C 29.72in /  1006.3hPa Calm     29% 0.00in /  0mm 0.0 W/m2
00:40 66.4 °F /  19.1 °C 33.1 °F /  0.6 °C 29.72in /  1006.3hPa Calm     29% 0.00in /  0mm 0.0 W/m2
00:45 66.2 °F /  19 °C 32.2 °F /  0.1 °C 29.72in /  1006.3hPa Calm   1.0mph /  1.6km/h 28% 0.00in /  0mm 0.0 W/m2
00:50 66.0 °F /  18.9 °C 32.9 °F /  0.5 °C 29.72in /  1006.3hPa Calm   1.0mph /  1.6km/h 29% 0.00in /  0mm 0.0 W/m2
00:55 66.0 °F /  18.9 °C 32.9 °F /  0.5 °C 29.72in /  1006.3hPa Calm     29% 0.00in /  0mm 0.0 W/m2
01:00 65.8 °F /  18.8 °C 32.7 °F /  0.4 °C 29.72in /  1006.3hPa Calm     29% 0.00in /  0mm 0.0 W/m2
01:06 65.7 °F /  18.7 °C 33.4 °F /  0.8 °C 29.72in /  1006.3hPa Calm     30% 0.00in /  0mm 0.0 W/m2
01:11 65.7 °F /  18.7 °C 32.5 °F /  0.3 °C 29.71in /  1006hPa Calm     29% 0.00in /  0mm 0.0 W/m2
01:16 65.5 °F /  18.6 °C 33.3 °F /  0.7 °C 29.71in /  1006hPa Calm     30% 0.00in /  0mm 0.0 W/m2
01:21 65.1 °F /  18.4 °C 32.9 °F /  0.5 °C 29.71in /  1006hPa Calm   1.0mph /  1.6km/h 30% 0.00in /  0mm 0.0 W/m2
01:26 64.8 °F /  18.2 °C 33.4 °F /  0.8 °C 29.71in /  1006hPa Calm     31% 0.00in /  0mm 0.0 W/m2
01:31 64.6 °F /  18.1 °C 34.0 °F /  1.1 °C 29.71in /  1006hPa Calm   3.0mph /  4.8km/h 32% 0.00in /  0mm 0.0 W/m2
01:36 64.2 °F /  17.9 °C 33.8 °F /  1 °C 29.71in /  1006hPa Calm   1.0mph /  1.6km/h 32% 0.00in /  0mm 0.0 W/m2
01:42 64.0 °F /  17.8 °C 33.6 °F /  0.9 °C 29.70in /  1005.6hPa Calm     32% 0.00in /  0mm 0.0 W/m2
01:47 63.9 °F /  17.7 °C 33.4 °F /  0.8 °C 29.70in /  1005.6hPa Calm     32% 0.00in /  0mm 0.0 W/m2
01:52 63.7 °F /  17.6 °C 34.7 °F /  1.5 °C 29.70in /  1005.6hPa Calm     34% 0.00in /  0mm 0.0 W/m2
01:57 63.3 °F /  17.4 °C 33.8 °F /  1 °C 29.70in /  1005.6hPa Calm   1.0mph /  1.6km/h 33% 0.00in /  0mm 0.0 W/m2
02:02 63.3 °F /  17.4 °C 34.5 °F /  1.4 °C 29.71in /  1006hPa Calm   4.0mph /  6.4km/h 34% 0.00in /  0mm 0.0 W/m2
02:07 63.3 °F /  17.4 °C 34.5 °F /  1.4 °C 29.71in /  1006hPa East 0.9mph /  1.4km/h 6.0mph /  9.7km/h 34% 0.00in /  0mm 0.0 W/m2
02:12 63.1 °F /  17.3 °C 35.1 °F /  1.7 °C 29.72in /  1006.3hPa NE 4.0mph /  6.4km/h 8.0mph /  12.9km/h 35% 0.00in /  0mm 0.0 W/m2
02:18 62.8 °F /  17.1 °C 35.4 °F /  1.9 °C 29.72in /  1006.3hPa East 0.9mph /  1.4km/h 5.0mph /  8km/h 36% 0.00in /  0mm 0.0 W/m2
02:23 62.6 °F /  17 °C 35.2 °F /  1.8 °C 29.71in /  1006hPa Calm   2.0mph /  3.2km/h 36% 0.00in /  0mm 0.0 W/m2
02:29 62.4 °F /  16.9 °C 34.3 °F /  1.3 °C 29.71in /  1006hPa East 2.0mph /  3.2km/h 2.0mph /  3.2km/h 35% 0.00in /  0mm 0.0 W/m2
02:34 62.6 °F /  17 °C 34.5 °F /  1.4 °C 29.72in /  1006.3hPa Calm   2.0mph /  3.2km/h 35% 0.00in /  0mm 0.0 W/m2
02:39 62.8 °F /  17.1 °C 34.0 °F /  1.1 °C 29.72in /  1006.3hPa ENE 2.0mph /  3.2km/h 2.0mph /  3.2km/h 34% 0.00in /  0mm 0.0 W/m2
02:44 63.0 °F /  17.2 °C 33.4 °F /  0.8 °C 29.72in /  1006.3hPa Calm   3.0mph /  4.8km/h 33% 0.00in /  0mm 0.0 W/m2
02:49 63.0 °F /  17.2 °C 33.4 °F /  0.8 °C 29.72in /  1006.3hPa Calm   1.0mph /  1.6km/h 33% 0.00in /  0mm 0.0 W/m2
02:54 63.1 °F /  17.3 °C 33.6 °F /  0.9 °C 29.72in /  1006.3hPa Calm   3.0mph /  4.8km/h 33% 0.00in /  0mm 0.0 W/m2
02:59 63.1 °F /  17.3 °C 33.6 °F /  0.9 °C 29.72in /  1006.3hPa Calm   1.0mph /  1.6km/h 33% 0.00in /  0mm 0.0 W/m2
03:05 63.1 °F /  17.3 °C 32.7 °F /  0.4 °C 29.73in /  1006.7hPa Calm   3.0mph /  4.8km/h 32% 0.00in /  0mm 0.0 W/m2
03:10 63.1 °F /  17.3 °C 32.0 °F /  0 °C 29.72in /  1006.3hPa Calm   1.0mph /  1.6km/h 31% 0.00in /  0mm 0.0 W/m2
03:15 63.3 °F /  17.4 °C 33.8 °F /  1 °C 29.72in /  1006.3hPa SE 0.9mph /  1.4km/h 1.0mph /  1.6km/h 33% 0.00in /  0mm 0.0 W/m2
03:20 63.3 °F /  17.4 °C 34.5 °F /  1.4 °C 29.73in /  1006.7hPa Calm   2.0mph /  3.2km/h 34% 0.00in /  0mm 0.0 W/m2
03:25 63.7 °F /  17.6 °C 35.6 °F /  2 °C 29.72in /  1006.3hPa Calm   1.0mph /  1.6km/h 35% 0.00in /  0mm 0.0 W/m2
03:30 63.7 °F /  17.6 °C 35.6 °F /  2 °C 29.72in /  1006.3hPa Calm   2.0mph /  3.2km/h 35% 0.00in /  0mm 0.0 W/m2
03:35 63.7 °F /  17.6 °C 35.6 °F /  2 °C 29.73in /  1006.7hPa Calm   1.0mph /  1.6km/h 35% 0.00in /  0mm 0.0 W/m2
03:40 63.5 °F /  17.5 °C 35.4 °F /  1.9 °C 29.73in /  1006.7hPa SSE 4.0mph /  6.4km/h 4.0mph /  6.4km/h 35% 0.00in /  0mm 0.0 W/m2
03:45 63.5 °F /  17.5 °C 35.4 °F /  1.9 °C 29.73in /  1006.7hPa SE 0.9mph /  1.4km/h 2.0mph /  3.2km/h 35% 0.00in /  0mm 0.0 W/m2
03:51 63.3 °F /  17.4 °C 35.2 °F /  1.8 °C 29.73in /  1006.7hPa Calm   3.0mph /  4.8km/h 35% 0.00in /  0mm 0.0 W/m2
03:56 63.3 °F /  17.4 °C 35.2 °F /  1.8 °C 29.73in /  1006.7hPa Calm   1.0mph /  1.6km/h 35% 0.00in /  0mm 0.0 W/m2
04:02 63.1 °F /  17.3 °C 34.3 °F /  1.3 °C 29.73in /  1006.7hPa Calm   1.0mph /  1.6km/h 34% 0.00in /  0mm 0.0 W/m2
04:07 63.0 °F /  17.2 °C 34.2 °F /  1.2 °C 29.73in /  1006.7hPa Calm     34% 0.00in /  0mm 0.0 W/m2
04:12 62.8 °F /  17.1 °C 34.7 °F /  1.5 °C 29.73in /  1006.7hPa Calm     35% 0.00in /  0mm 0.0 W/m2
04:17 62.4 °F /  16.9 °C 35.1 °F /  1.7 °C 29.73in /  1006.7hPa Calm     36% 0.00in /  0mm 0.0 W/m2
04:22 62.2 °F /  16.8 °C 34.2 °F /  1.2 °C 29.73in /  1006.7hPa Calm     35% 0.00in /  0mm 0.0 W/m2
04:27 62.1 °F /  16.7 °C 34.9 °F /  1.6 °C 29.73in /  1006.7hPa Calm     36% 0.00in /  0mm 0.0 W/m2
04:32 61.9 °F /  16.6 °C 35.2 °F /  1.8 °C 29.73in /  1006.7hPa Calm     37% 0.00in /  0mm 0.0 W/m2
04:37 61.5 °F /  16.4 °C 35.6 °F /  2 °C 29.73in /  1006.7hPa Calm     38% 0.00in /  0mm 0.0 W/m2
04:42 61.3 °F /  16.3 °C 35.6 °F /  2 °C 29.73in /  1006.7hPa Calm     38% 0.00in /  0mm 0.0 W/m2
04:48 61.2 °F /  16.2 °C 35.4 °F /  1.9 °C 29.73in /  1006.7hPa Calm     38% 0.00in /  0mm 0.0 W/m2
04:53 61.0 °F /  16.1 °C 35.8 °F /  2.1 °C 29.73in /  1006.7hPa Calm     39% 0.00in /  0mm 0.0 W/m2
04:58 60.8 °F /  16 °C 35.6 °F /  2 °C 29.73in /  1006.7hPa Calm     39% 0.00in /  0mm 0.0 W/m2
05:03 60.6 °F /  15.9 °C 35.6 °F /  2 °C 29.74in /  1007hPa Calm     39% 0.00in /  0mm 0.0 W/m2
05:08 60.4 °F /  15.8 °C 35.4 °F /  1.9 °C 29.74in /  1007hPa Calm   1.0mph /  1.6km/h 39% 0.00in /  0mm 0.0 W/m2
05:15 60.3 °F /  15.7 °C 35.8 °F /  2.1 °C 29.74in /  1007hPa Calm     40% 0.00in /  0mm 0.0 W/m2
05:21 60.1 °F /  15.6 °C 35.6 °F /  2 °C 29.74in /  1007hPa Calm   2.0mph /  3.2km/h 40% 0.00in /  0mm 0.0 W/m2
05:24 59.9 °F /  15.5 °C 35.6 °F /  2 °C 29.74in /  1007hPa ESE 0.9mph /  1.4km/h 2.0mph /  3.2km/h 40% 0.00in /  0mm 0.0 W/m2
05:27 59.7 °F /  15.4 °C 36.0 °F /  2.2 °C 29.74in /  1007hPa ESE 0.9mph /  1.4km/h 1.0mph /  1.6km/h 41% 0.00in /  0mm 0.0 W/m2
05:29 59.7 °F /  15.4 °C 36.0 °F /  2.2 °C 29.74in /  1007hPa Calm   2.0mph /  3.2km/h 41% 0.00in /  0mm 0.0 W/m2
05:33 59.7 °F /  15.4 °C 36.0 °F /  2.2 °C 29.74in /  1007hPa Calm     41% 0.00in /  0mm 0.0 W/m2
05:38 59.5 °F /  15.3 °C 35.8 °F /  2.1 °C 29.74in /  1007hPa Calm   2.0mph /  3.2km/h 41% 0.00in /  0mm 0.0 W/m2
05:43 59.5 °F /  15.3 °C 35.2 °F /  1.8 °C 29.74in /  1007hPa Calm     40% 0.00in /  0mm 0.0 W/m2
05:48 59.5 °F /  15.3 °C 35.8 °F /  2.1 °C 29.75in /  1007.3hPa Calm   1.0mph /  1.6km/h 41% 0.00in /  0mm 0.0 W/m2
05:53 59.4 °F /  15.2 °C 34.3 °F /  1.3 °C 29.75in /  1007.3hPa Calm   1.0mph /  1.6km/h 39% 0.00in /  0mm 0.0 W/m2
05:58 59.4 °F /  15.2 °C 34.3 °F /  1.3 °C 29.75in /  1007.3hPa Calm   2.0mph /  3.2km/h 39% 0.00in /  0mm 0.0 W/m2
06:04 59.2 °F /  15.1 °C 34.9 °F /  1.6 °C 29.75in /  1007.3hPa Calm     40% 0.00in /  0mm 0.0 W/m2
06:09 59.2 °F /  15.1 °C 34.2 °F /  1.2 °C 29.75in /  1007.3hPa Calm     39% 0.00in /  0mm 5.0 W/m2
06:14 59.0 °F /  15 °C 34.2 °F /  1.2 °C 29.75in /  1007.3hPa Calm     39% 0.00in /  0mm 7.0 W/m2
06:19 58.8 °F /  14.9 °C 34.5 °F /  1.4 °C 29.75in /  1007.3hPa Calm     40% 0.00in /  0mm 11.0 W/m2
06:24 58.8 °F /  14.9 °C 34.5 °F /  1.4 °C 29.75in /  1007.3hPa Calm     40% 0.00in /  0mm 12.0 W/m2
06:29 58.8 °F /  14.9 °C 35.2 °F /  1.8 °C 29.76in /  1007.7hPa Calm   2.0mph /  3.2km/h 41% 0.00in /  0mm 16.0 W/m2
06:34 58.8 °F /  14.9 °C 34.5 °F /  1.4 °C 29.76in /  1007.7hPa NE 0.9mph /  1.4km/h 2.0mph /  3.2km/h 40% 0.00in /  0mm 18.0 W/m2
06:39 58.8 °F /  14.9 °C 34.5 °F /  1.4 °C 29.75in /  1007.3hPa Calm   2.0mph /  3.2km/h 40% 0.00in /  0mm 21.0 W/m2
06:44 59.2 °F /  15.1 °C 35.4 °F /  1.9 °C 29.75in /  1007.3hPa ESE 0.9mph /  1.4km/h 4.0mph /  6.4km/h 41% 0.00in /  0mm 23.0 W/m2
06:50 59.5 °F /  15.3 °C 35.8 °F /  2.1 °C 29.76in /  1007.7hPa ESE 2.0mph /  3.2km/h 5.0mph /  8km/h 41% 0.00in /  0mm 26.0 W/m2
06:55 60.3 °F /  15.7 °C 37.0 °F /  2.8 °C 29.76in /  1007.7hPa Calm   5.0mph /  8km/h 42% 0.00in /  0mm 26.0 W/m2
07:00 61.0 °F /  16.1 °C 37.8 °F /  3.2 °C 29.76in /  1007.7hPa ESE 0.9mph /  1.4km/h 4.0mph /  6.4km/h 42% 0.00in /  0mm 30.0 W/m2
07:05 61.5 °F /  16.4 °C 38.3 °F /  3.5 °C 29.76in /  1007.7hPa East 2.0mph /  3.2km/h 4.0mph /  6.4km/h 42% 0.00in /  0mm 30.0 W/m2
07:10 62.2 °F /  16.8 °C 38.8 °F /  3.8 °C 29.76in /  1007.7hPa East 2.0mph /  3.2km/h 3.0mph /  4.8km/h 42% 0.00in /  0mm 33.0 W/m2
07:16 63.0 °F /  17.2 °C 39.6 °F /  4.2 °C 29.76in /  1007.7hPa East 2.9mph /  4.7km/h 5.0mph /  8km/h 42% 0.00in /  0mm 79.0 W/m2
07:21 63.7 °F /  17.6 °C 40.1 °F /  4.5 °C 29.76in /  1007.7hPa East 0.9mph /  1.4km/h 4.0mph /  6.4km/h 42% 0.00in /  0mm 46.0 W/m2
07:26 64.2 °F /  17.9 °C 40.1 °F /  4.5 °C 29.76in /  1007.7hPa ENE 2.0mph /  3.2km/h 6.0mph /  9.7km/h 41% 0.00in /  0mm 93.0 W/m2
07:31 65.5 °F /  18.6 °C 41.2 °F /  5.1 °C 29.76in /  1007.7hPa ESE 0.9mph /  1.4km/h 6.0mph /  9.7km/h 41% 0.00in /  0mm 294.0 W/m2
07:36 66.4 °F /  19.1 °C 41.9 °F /  5.5 °C 29.76in /  1007.7hPa ESE 8.9mph /  14.3km/h 9.0mph /  14.5km/h 41% 0.00in /  0mm 316.0 W/m2
07:47 68.4 °F /  20.2 °C 42.4 °F /  5.8 °C 29.76in /  1007.7hPa ENE 2.0mph /  3.2km/h 10.0mph /  16.1km/h 39% 0.00in /  0mm 359.0 W/m2
07:52 69.3 °F /  20.7 °C 45.9 °F /  7.7 °C 29.76in /  1007.7hPa ESE 4.0mph /  6.4km/h 8.0mph /  12.9km/h 43% 0.00in /  0mm 381.0 W/m2
07:57 70.2 °F /  21.2 °C 46.0 °F /  7.8 °C 29.76in /  1007.7hPa NE 2.9mph /  4.7km/h 9.0mph /  14.5km/h 42% 0.00in /  0mm 401.0 W/m2
08:02 71.1 °F /  21.7 °C 46.2 °F /  7.9 °C 29.76in /  1007.7hPa NNE 2.9mph /  4.7km/h 13.0mph /  20.9km/h 41% 0.00in /  0mm 422.0 W/m2
08:07 72.0 °F /  22.2 °C 46.4 °F /  8 °C 29.75in /  1007.3hPa ENE 4.0mph /  6.4km/h 9.0mph /  14.5km/h 40% 0.00in /  0mm 443.0 W/m2
08:12 72.7 °F /  22.6 °C 46.9 °F /  8.3 °C 29.75in /  1007.3hPa NNE 4.0mph /  6.4km/h 14.0mph /  22.5km/h 40% 0.00in /  0mm 464.0 W/m2
08:17 73.0 °F /  22.8 °C 48.0 °F /  8.9 °C 29.75in /  1007.3hPa SSW 4.0mph /  6.4km/h 12.0mph /  19.3km/h 41% 0.00in /  0mm 483.0 W/m2
08:24 73.4 °F /  23 °C 47.7 °F /  8.7 °C 29.75in /  1007.3hPa NNE 4.9mph /  7.9km/h 11.0mph /  17.7km/h 40% 0.00in /  0mm 508.0 W/m2
08:29 73.6 °F /  23.1 °C 47.8 °F /  8.8 °C 29.75in /  1007.3hPa East 2.0mph /  3.2km/h 10.0mph /  16.1km/h 40% 0.00in /  0mm 526.0 W/m2
08:34 73.9 °F /  23.3 °C 48.0 °F /  8.9 °C 29.75in /  1007.3hPa NNE 4.9mph /  7.9km/h 7.0mph /  11.3km/h 40% 0.00in /  0mm 545.0 W/m2
08:39 74.3 °F /  23.5 °C 47.7 °F /  8.7 °C 29.75in /  1007.3hPa East 4.9mph /  7.9km/h 11.0mph /  17.7km/h 39% 0.00in /  0mm 564.0 W/m2
08:44 74.5 °F /  23.6 °C 47.8 °F /  8.8 °C 29.75in /  1007.3hPa ENE 6.0mph /  9.7km/h 8.0mph /  12.9km/h 39% 0.00in /  0mm 582.0 W/m2
08:49 74.8 °F /  23.8 °C 48.2 °F /  9 °C 29.75in /  1007.3hPa Calm   10.0mph /  16.1km/h 39% 0.00in /  0mm 601.0 W/m2
08:54 75.2 °F /  24 °C 48.6 °F /  9.2 °C 29.75in /  1007.3hPa ENE 6.0mph /  9.7km/h 8.0mph /  12.9km/h 39% 0.00in /  0mm 619.0 W/m2
08:59 75.6 °F /  24.2 °C 48.9 °F /  9.4 °C 29.75in /  1007.3hPa ENE 8.1mph /  13km/h 11.0mph /  17.7km/h 39% 0.00in /  0mm 638.0 W/m2
09:04 75.6 °F /  24.2 °C 48.9 °F /  9.4 °C 29.75in /  1007.3hPa ESE 2.9mph /  4.7km/h 10.0mph /  16.1km/h 39% 0.00in /  0mm 656.0 W/m2
09:10 75.7 °F /  24.3 °C 49.1 °F /  9.5 °C 29.75in /  1007.3hPa NNE 0.9mph /  1.4km/h 13.0mph /  20.9km/h 39% 0.00in /  0mm 673.0 W/m2
09:15 75.9 °F /  24.4 °C 49.1 °F /  9.5 °C 29.74in /  1007hPa NE 4.0mph /  6.4km/h 7.0mph /  11.3km/h 39% 0.00in /  0mm 691.0 W/m2
09:20 76.1 °F /  24.5 °C 48.6 °F /  9.2 °C 29.74in /  1007hPa North 6.0mph /  9.7km/h 12.0mph /  19.3km/h 38% 0.00in /  0mm 708.0 W/m2
09:25 76.5 °F /  24.7 °C 48.9 °F /  9.4 °C 29.74in /  1007hPa ESE 4.0mph /  6.4km/h 9.0mph /  14.5km/h 38% 0.00in /  0mm 726.0 W/m2
09:30 76.6 °F /  24.8 °C 48.4 °F /  9.1 °C 29.75in /  1007.3hPa ENE 8.9mph /  14.3km/h 11.0mph /  17.7km/h 37% 0.00in /  0mm 742.0 W/m2
09:35 76.6 °F /  24.8 °C 49.1 °F /  9.5 °C 29.74in /  1007hPa ENE 4.0mph /  6.4km/h 7.0mph /  11.3km/h 38% 0.00in /  0mm 756.0 W/m2
09:40 77.2 °F /  25.1 °C 48.9 °F /  9.4 °C 29.74in /  1007hPa ESE 6.0mph /  9.7km/h 9.0mph /  14.5km/h 37% 0.00in /  0mm 775.0 W/m2
09:45 77.5 °F /  25.3 °C 47.7 °F /  8.7 °C 29.74in /  1007hPa ENE 6.9mph /  11.1km/h 11.0mph /  17.7km/h 35% 0.00in /  0mm 788.0 W/m2
09:50 77.7 °F /  25.4 °C 48.6 °F /  9.2 °C 29.74in /  1007hPa East 8.1mph /  13km/h 8.1mph /  13km/h 36% 0.00in /  0mm 805.0 W/m2
09:55 78.3 °F /  25.7 °C 49.1 °F /  9.5 °C 29.74in /  1007hPa ESE 2.9mph /  4.7km/h 6.0mph /  9.7km/h 36% 0.00in /  0mm 819.0 W/m2
10:00 78.6 °F /  25.9 °C 49.5 °F /  9.7 °C 29.74in /  1007hPa ESE 4.0mph /  6.4km/h 12.0mph /  19.3km/h 36% 0.00in /  0mm 833.0 W/m2
10:06 79.0 °F /  26.1 °C 48.9 °F /  9.4 °C 29.74in /  1007hPa Calm   12.0mph /  19.3km/h 35% 0.00in /  0mm 846.0 W/m2
10:11 79.3 °F /  26.3 °C 48.6 °F /  9.2 °C 29.74in /  1007hPa NNE 2.9mph /  4.7km/h 10.0mph /  16.1km/h 34% 0.00in /  0mm 860.0 W/m2
10:16 79.9 °F /  26.6 °C 48.9 °F /  9.4 °C 29.73in /  1006.7hPa NE 4.0mph /  6.4km/h 8.0mph /  12.9km/h 34% 0.00in /  0mm 874.0 W/m2
10:21 80.1 °F /  26.7 °C 50.0 °F /  10 °C 29.73in /  1006.7hPa North 2.0mph /  3.2km/h 11.0mph /  17.7km/h 35% 0.00in /  0mm 884.0 W/m2
10:26 80.4 °F /  26.9 °C 50.2 °F /  10.1 °C 29.73in /  1006.7hPa SE 4.0mph /  6.4km/h 7.0mph /  11.3km/h 35% 0.00in /  0mm 891.0 W/m2
10:31 81.1 °F /  27.3 °C 49.3 °F /  9.6 °C 29.73in /  1006.7hPa ENE 6.0mph /  9.7km/h 8.0mph /  12.9km/h 33% 0.00in /  0mm 905.0 W/m2
10:36 81.3 °F /  27.4 °C 49.5 °F /  9.7 °C 29.73in /  1006.7hPa SSW 2.0mph /  3.2km/h 8.0mph /  12.9km/h 33% 0.00in /  0mm 921.0 W/m2
10:41 81.3 °F /  27.4 °C 49.5 °F /  9.7 °C 29.72in /  1006.3hPa ESE 4.0mph /  6.4km/h 12.0mph /  19.3km/h 33% 0.00in /  0mm 930.0 W/m2
10:47 81.5 °F /  27.5 °C 49.6 °F /  9.8 °C 29.72in /  1006.3hPa East 2.0mph /  3.2km/h 7.0mph /  11.3km/h 33% 0.00in /  0mm 939.0 W/m2
10:53 82.0 °F /  27.8 °C 50.2 °F /  10.1 °C 29.72in /  1006.3hPa East 6.9mph /  11.1km/h 11.0mph /  17.7km/h 33% 0.00in /  0mm 947.0 W/m2
10:58 82.0 °F /  27.8 °C 49.3 °F /  9.6 °C 29.72in /  1006.3hPa ESE 2.0mph /  3.2km/h 9.0mph /  14.5km/h 32% 0.00in /  0mm 958.0 W/m2
11:03 82.6 °F /  28.1 °C 49.8 °F /  9.9 °C 29.72in /  1006.3hPa East 2.0mph /  3.2km/h 7.0mph /  11.3km/h 32% 0.00in /  0mm 963.0 W/m2
11:08 82.8 °F /  28.2 °C 48.2 °F /  9 °C 29.72in /  1006.3hPa East 2.9mph /  4.7km/h 9.0mph /  14.5km/h 30% 0.00in /  0mm 976.0 W/m2
11:13 83.1 °F /  28.4 °C 50.2 °F /  10.1 °C 29.72in /  1006.3hPa NNE 4.9mph /  7.9km/h 8.0mph /  12.9km/h 32% 0.00in /  0mm 979.0 W/m2
11:14 83.1 °F /  28.4 °C 49.3 °F /  9.6 °C 29.72in /  1006.3hPa ESE 4.0mph /  6.4km/h 8.0mph /  12.9km/h 31% 0.00in /  0mm 979.0 W/m2
11:19 83.7 °F /  28.7 °C 49.8 °F /  9.9 °C 29.71in /  1006hPa ESE 4.0mph /  6.4km/h 7.0mph /  11.3km/h 31% 0.00in /  0mm 986.0 W/m2
11:24 83.8 °F /  28.8 °C 50.0 °F /  10 °C 29.71in /  1006hPa ESE 4.0mph /  6.4km/h 5.0mph /  8km/h 31% 0.00in /  0mm 993.0 W/m2
11:29 84.2 °F /  29 °C 48.6 °F /  9.2 °C 29.71in /  1006hPa ESE 4.9mph /  7.9km/h 9.0mph /  14.5km/h 29% 0.00in /  0mm 1005.0 W/m2
11:35 84.4 °F /  29.1 °C 48.7 °F /  9.3 °C 29.71in /  1006hPa NNE 6.0mph /  9.7km/h 10.0mph /  16.1km/h 29% 0.00in /  0mm 1014.0 W/m2
11:41 84.6 °F /  29.2 °C 48.7 °F /  9.3 °C 29.71in /  1006hPa North 6.9mph /  11.1km/h 7.0mph /  11.3km/h 29% 0.00in /  0mm 1007.0 W/m2
11:46 84.7 °F /  29.3 °C 48.0 °F /  8.9 °C 29.71in /  1006hPa Calm   9.0mph /  14.5km/h 28% 0.00in /  0mm 1025.0 W/m2
11:56 85.3 °F /  29.6 °C 48.6 °F /  9.2 °C 29.70in /  1005.6hPa ENE 2.9mph /  4.7km/h 5.0mph /  8km/h 28% 0.00in /  0mm 1071.0 W/m2
12:01 85.8 °F /  29.9 °C 46.9 °F /  8.3 °C 29.70in /  1005.6hPa NNW 4.9mph /  7.9km/h 6.0mph /  9.7km/h 26% 0.00in /  0mm 1049.0 W/m2
12:06 86.4 °F /  30.2 °C 46.4 °F /  8 °C 29.70in /  1005.6hPa SSE 2.0mph /  3.2km/h 6.0mph /  9.7km/h 25% 0.00in /  0mm 1051.0 W/m2
12:11 86.5 °F /  30.3 °C 47.7 °F /  8.7 °C 29.70in /  1005.6hPa NW 2.0mph /  3.2km/h 4.0mph /  6.4km/h 26% 0.00in /  0mm 1069.0 W/m2
12:16 86.4 °F /  30.2 °C 46.4 °F /  8 °C 29.70in /  1005.6hPa West 0.9mph /  1.4km/h 5.0mph /  8km/h 25% 0.00in /  0mm 1088.0 W/m2
12:22 86.4 °F /  30.2 °C 47.5 °F /  8.6 °C 29.70in /  1005.6hPa Calm   8.0mph /  12.9km/h 26% 0.00in /  0mm 1099.0 W/m2
12:27 86.9 °F /  30.5 °C 46.8 °F /  8.2 °C 29.70in /  1005.6hPa ENE 2.9mph /  4.7km/h 11.0mph /  17.7km/h 25% 0.00in /  0mm 1107.0 W/m2
12:32 87.3 °F /  30.7 °C 46.0 °F /  7.8 °C 29.69in /  1005.3hPa North 2.9mph /  4.7km/h 4.0mph /  6.4km/h 24% 0.00in /  0mm 1139.0 W/m2
12:37 87.3 °F /  30.7 °C 47.1 °F /  8.4 °C 29.69in /  1005.3hPa NNW 6.9mph /  11.1km/h 7.0mph /  11.3km/h 25% 0.00in /  0mm 1143.0 W/m2
12:42 87.4 °F /  30.8 °C 46.2 °F /  7.9 °C 29.69in /  1005.3hPa West 0.9mph /  1.4km/h 6.0mph /  9.7km/h 24% 0.00in /  0mm 142.0 W/m2
12:47 86.7 °F /  30.4 °C 45.7 °F /  7.6 °C 29.69in /  1005.3hPa SW 0.9mph /  1.4km/h 3.0mph /  4.8km/h 24% 0.00in /  0mm 192.0 W/m2
12:53 86.7 °F /  30.4 °C 45.7 °F /  7.6 °C 29.68in /  1005hPa WSW 0.9mph /  1.4km/h 3.0mph /  4.8km/h 24% 0.00in /  0mm 1139.0 W/m2
12:58 87.3 °F /  30.7 °C 46.0 °F /  7.8 °C 29.68in /  1005hPa NW 6.9mph /  11.1km/h 7.0mph /  11.3km/h 24% 0.00in /  0mm 1136.0 W/m2
13:03 87.4 °F /  30.8 °C 45.1 °F /  7.3 °C 29.68in /  1005hPa NNE 2.0mph /  3.2km/h 2.0mph /  3.2km/h 23% 0.00in /  0mm 1130.0 W/m2
13:09 87.6 °F /  30.9 °C 45.3 °F /  7.4 °C 29.68in /  1005hPa ESE 0.9mph /  1.4km/h 2.0mph /  3.2km/h 23% 0.00in /  0mm 1144.0 W/m2
13:14 88.3 °F /  31.3 °C 44.6 °F /  7 °C 29.68in /  1005hPa NNE 8.1mph /  13km/h 8.1mph /  13km/h 22% 0.00in /  0mm 1130.0 W/m2
13:19 88.9 °F /  31.6 °C 45.1 °F /  7.3 °C 29.67in /  1004.6hPa NW 6.0mph /  9.7km/h 10.0mph /  16.1km/h 22% 0.00in /  0mm 1104.0 W/m2
13:24 88.5 °F /  31.4 °C 44.8 °F /  7.1 °C 29.67in /  1004.6hPa Calm   3.0mph /  4.8km/h 22% 0.00in /  0mm 1137.0 W/m2
13:29 89.2 °F /  31.8 °C 44.2 °F /  6.8 °C 29.67in /  1004.6hPa NNE 2.0mph /  3.2km/h 8.0mph /  12.9km/h 21% 0.00in /  0mm 1113.0 W/m2
13:34 89.6 °F /  32 °C 43.2 °F /  6.2 °C 29.67in /  1004.6hPa WNW 0.9mph /  1.4km/h 7.0mph /  11.3km/h 20% 0.00in /  0mm 1120.0 W/m2
13:39 90.1 °F /  32.3 °C 43.7 °F /  6.5 °C 29.67in /  1004.6hPa NW 0.9mph /  1.4km/h 4.0mph /  6.4km/h 20% 0.00in /  0mm 1137.0 W/m2
13:44 90.5 °F /  32.5 °C 43.9 °F /  6.6 °C 29.66in /  1004.3hPa WSW 0.9mph /  1.4km/h 2.0mph /  3.2km/h 20% 0.00in /  0mm 1194.0 W/m2
13:50 90.1 °F /  32.3 °C 45.0 °F /  7.2 °C 29.66in /  1004.3hPa East 2.0mph /  3.2km/h 6.0mph /  9.7km/h 21% 0.00in /  0mm 1148.0 W/m2
13:55 90.3 °F /  32.4 °C 45.1 °F /  7.3 °C 29.66in /  1004.3hPa North 2.0mph /  3.2km/h 13.0mph /  20.9km/h 21% 0.00in /  0mm 371.0 W/m2
14:00 90.5 °F /  32.5 °C 45.3 °F /  7.4 °C 29.66in /  1004.3hPa NE 6.9mph /  11.1km/h 10.0mph /  16.1km/h 21% 0.00in /  0mm 1107.0 W/m2
14:05 90.5 °F /  32.5 °C 45.3 °F /  7.4 °C 29.65in /  1003.9hPa North 2.0mph /  3.2km/h 7.0mph /  11.3km/h 21% 0.00in /  0mm 1106.0 W/m2
14:10 90.3 °F /  32.4 °C 45.1 °F /  7.3 °C 29.65in /  1003.9hPa North 0.9mph /  1.4km/h 4.0mph /  6.4km/h 21% 0.00in /  0mm 399.0 W/m2
14:15 90.9 °F /  32.7 °C 45.5 °F /  7.5 °C 29.65in /  1003.9hPa NW 4.9mph /  7.9km/h 8.0mph /  12.9km/h 21% 0.00in /  0mm 1172.0 W/m2
14:20 91.2 °F /  32.9 °C 45.9 °F /  7.7 °C 29.65in /  1003.9hPa NNE 4.9mph /  7.9km/h 7.0mph /  11.3km/h 21% 0.00in /  0mm 1202.0 W/m2
14:25 91.2 °F /  32.9 °C 44.6 °F /  7 °C 29.65in /  1003.9hPa NE 2.9mph /  4.7km/h 11.0mph /  17.7km/h 20% 0.00in /  0mm 624.0 W/m2
14:31 90.5 °F /  32.5 °C 45.3 °F /  7.4 °C 29.64in /  1003.6hPa North 4.0mph /  6.4km/h 7.0mph /  11.3km/h 21% 0.00in /  0mm 1176.0 W/m2
14:36 90.0 °F /  32.2 °C 44.8 °F /  7.1 °C 29.64in /  1003.6hPa NW 0.9mph /  1.4km/h 10.0mph /  16.1km/h 21% 0.00in /  0mm 441.0 W/m2
14:41 89.2 °F /  31.8 °C 45.5 °F /  7.5 °C 29.64in /  1003.6hPa North 4.0mph /  6.4km/h 10.0mph /  16.1km/h 22% 0.00in /  0mm 371.0 W/m2
14:46 89.1 °F /  31.7 °C 45.3 °F /  7.4 °C 29.64in /  1003.6hPa NNW 4.0mph /  6.4km/h 7.0mph /  11.3km/h 22% 0.00in /  0mm 1062.0 W/m2
14:51 88.5 °F /  31.4 °C 44.8 °F /  7.1 °C 29.64in /  1003.6hPa NE 2.0mph /  3.2km/h 5.0mph /  8km/h 22% 0.00in /  0mm 257.0 W/m2
14:56 88.0 °F /  31.1 °C 44.4 °F /  6.9 °C 29.64in /  1003.6hPa NNE 2.0mph /  3.2km/h 5.0mph /  8km/h 22% 0.00in /  0mm 309.0 W/m2
15:01 87.6 °F /  30.9 °C 44.1 °F /  6.7 °C 29.63in /  1003.3hPa NNW 2.0mph /  3.2km/h 3.0mph /  4.8km/h 22% 0.00in /  0mm 287.0 W/m2
15:06 87.6 °F /  30.9 °C 44.1 °F /  6.7 °C 29.64in /  1003.6hPa WNW 2.9mph /  4.7km/h 7.0mph /  11.3km/h 22% 0.00in /  0mm 1078.0 W/m2
15:11 88.3 °F /  31.3 °C 44.6 °F /  7 °C 29.63in /  1003.3hPa North 0.9mph /  1.4km/h 3.0mph /  4.8km/h 22% 0.00in /  0mm 1076.0 W/m2
15:17 89.8 °F /  32.1 °C 43.3 °F /  6.3 °C 29.63in /  1003.3hPa NNW 8.1mph /  13km/h 9.0mph /  14.5km/h 20% 0.00in /  0mm 1042.0 W/m2
15:22 90.0 °F /  32.2 °C 43.5 °F /  6.4 °C 29.63in /  1003.3hPa Calm   8.0mph /  12.9km/h 20% 0.00in /  0mm 397.0 W/m2
15:27 90.1 °F /  32.3 °C 43.7 °F /  6.5 °C 29.63in /  1003.3hPa NE 6.0mph /  9.7km/h 7.0mph /  11.3km/h 20% 0.00in /  0mm 555.0 W/m2
15:32 90.1 °F /  32.3 °C 42.3 °F /  5.7 °C 29.63in /  1003.3hPa WNW 2.0mph /  3.2km/h 4.0mph /  6.4km/h 19% 0.00in /  0mm 902.0 W/m2
15:37 90.5 °F /  32.5 °C 42.6 °F /  5.9 °C 29.63in /  1003.3hPa NNW 8.1mph /  13km/h 9.0mph /  14.5km/h 19% 0.00in /  0mm 668.0 W/m2
15:42 90.3 °F /  32.4 °C 45.1 °F /  7.3 °C 29.63in /  1003.3hPa ENE 6.0mph /  9.7km/h 13.0mph /  20.9km/h 21% 0.00in /  0mm 912.0 W/m2
15:47 89.8 °F /  32.1 °C 45.9 °F /  7.7 °C 29.62in /  1002.9hPa NE 4.9mph /  7.9km/h 11.0mph /  17.7km/h 22% 0.00in /  0mm 385.0 W/m2
15:52 89.8 °F /  32.1 °C 45.9 °F /  7.7 °C 29.62in /  1002.9hPa ENE 4.0mph /  6.4km/h 9.0mph /  14.5km/h 22% 0.00in /  0mm 413.0 W/m2
15:58 89.1 °F /  31.7 °C 44.1 °F /  6.7 °C 29.62in /  1002.9hPa NNW 4.0mph /  6.4km/h 8.0mph /  12.9km/h 21% 0.00in /  0mm 411.0 W/m2
16:03 88.7 °F /  31.5 °C 43.7 °F /  6.5 °C 29.62in /  1002.9hPa NNE 2.9mph /  4.7km/h 6.0mph /  9.7km/h 21% 0.00in /  0mm 315.0 W/m2
16:08 88.3 °F /  31.3 °C 43.5 °F /  6.4 °C 29.62in /  1002.9hPa NE 4.0mph /  6.4km/h 9.0mph /  14.5km/h 21% 0.00in /  0mm 265.0 W/m2
16:13 88.0 °F /  31.1 °C 43.2 °F /  6.2 °C 29.62in /  1002.9hPa ENE 4.9mph /  7.9km/h 9.0mph /  14.5km/h 21% 0.00in /  0mm 229.0 W/m2
16:18 87.4 °F /  30.8 °C 42.8 °F /  6 °C 29.62in /  1002.9hPa NE 2.0mph /  3.2km/h 9.0mph /  14.5km/h 21% 0.00in /  0mm 220.0 W/m2
16:23 87.1 °F /  30.6 °C 42.4 °F /  5.8 °C 29.62in /  1002.9hPa East 0.9mph /  1.4km/h 6.0mph /  9.7km/h 21% 0.00in /  0mm 202.0 W/m2
16:28 86.7 °F /  30.4 °C 42.1 °F /  5.6 °C 29.62in /  1002.9hPa NE 0.9mph /  1.4km/h 6.0mph /  9.7km/h 21% 0.00in /  0mm 186.0 W/m2
16:33 86.7 °F /  30.4 °C 43.3 °F /  6.3 °C 29.62in /  1002.9hPa ENE 0.9mph /  1.4km/h 5.0mph /  8km/h 22% 0.00in /  0mm 179.0 W/m2
16:38 86.5 °F /  30.3 °C 44.4 °F /  6.9 °C 29.62in /  1002.9hPa NE 2.9mph /  4.7km/h 9.0mph /  14.5km/h 23% 0.00in /  0mm 186.0 W/m2
16:43 86.5 °F /  30.3 °C 44.4 °F /  6.9 °C 29.62in /  1002.9hPa ENE 0.9mph /  1.4km/h 10.0mph /  16.1km/h 23% 0.00in /  0mm 221.0 W/m2
16:49 86.0 °F /  30 °C 43.9 °F /  6.6 °C 29.62in /  1002.9hPa ENE 4.0mph /  6.4km/h 7.0mph /  11.3km/h 23% 0.00in /  0mm 285.0 W/m2
16:54 85.3 °F /  29.6 °C 44.4 °F /  6.9 °C 29.62in /  1002.9hPa ESE 2.9mph /  4.7km/h 9.0mph /  14.5km/h 24% 0.00in /  0mm 192.0 W/m2
16:59 84.6 °F /  29.2 °C 45.0 °F /  7.2 °C 29.62in /  1002.9hPa ENE 4.9mph /  7.9km/h 9.0mph /  14.5km/h 25% 0.00in /  0mm 176.0 W/m2
17:04 84.2 °F /  29 °C 44.6 °F /  7 °C 29.62in /  1002.9hPa North 2.0mph /  3.2km/h 10.0mph /  16.1km/h 25% 0.00in /  0mm 178.0 W/m2
17:09 83.8 °F /  28.8 °C 44.2 °F /  6.8 °C 29.62in /  1002.9hPa East 8.1mph /  13km/h 10.0mph /  16.1km/h 25% 0.00in /  0mm 411.0 W/m2
17:14 83.8 °F /  28.8 °C 45.3 °F /  7.4 °C 29.62in /  1002.9hPa NE 2.9mph /  4.7km/h 7.0mph /  11.3km/h 26% 0.00in /  0mm 225.0 W/m2
17:19 84.2 °F /  29 °C 45.7 °F /  7.6 °C 29.62in /  1002.9hPa NE 2.0mph /  3.2km/h 9.0mph /  14.5km/h 26% 0.00in /  0mm 290.0 W/m2
17:24 84.4 °F /  29.1 °C 45.7 °F /  7.6 °C 29.62in /  1002.9hPa North 2.9mph /  4.7km/h 9.0mph /  14.5km/h 26% 0.00in /  0mm 146.0 W/m2
17:29 84.2 °F /  29 °C 44.6 °F /  7 °C 29.62in /  1002.9hPa ENE 4.9mph /  7.9km/h 7.0mph /  11.3km/h 25% 0.00in /  0mm 155.0 W/m2
17:34 84.2 °F /  29 °C 44.6 °F /  7 °C 29.63in /  1003.3hPa NNW 4.9mph /  7.9km/h 8.0mph /  12.9km/h 25% 0.00in /  0mm 192.0 W/m2
17:39 84.2 °F /  29 °C 43.5 °F /  6.4 °C 29.62in /  1002.9hPa NW 4.9mph /  7.9km/h 11.0mph /  17.7km/h 24% 0.00in /  0mm 155.0 W/m2
17:45 84.0 °F /  28.9 °C 43.3 °F /  6.3 °C 29.63in /  1003.3hPa North 4.0mph /  6.4km/h 7.0mph /  11.3km/h 24% 0.00in /  0mm 167.0 W/m2
17:50 83.8 °F /  28.8 °C 43.2 °F /  6.2 °C 29.63in /  1003.3hPa NNW 2.9mph /  4.7km/h 5.0mph /  8km/h 24% 0.00in /  0mm 114.0 W/m2
17:55 83.7 °F /  28.7 °C 43.0 °F /  6.1 °C 29.63in /  1003.3hPa NNE 4.0mph /  6.4km/h 5.0mph /  8km/h 24% 0.00in /  0mm 116.0 W/m2
18:00 83.7 °F /  28.7 °C 41.9 °F /  5.5 °C 29.63in /  1003.3hPa North 6.0mph /  9.7km/h 10.0mph /  16.1km/h 23% 0.00in /  0mm 86.0 W/m2
18:05 83.3 °F /  28.5 °C 41.7 °F /  5.4 °C 29.63in /  1003.3hPa North 4.0mph /  6.4km/h 9.0mph /  14.5km/h 23% 0.00in /  0mm 70.0 W/m2
18:10 82.9 °F /  28.3 °C 42.4 °F /  5.8 °C 29.63in /  1003.3hPa NW 8.9mph /  14.3km/h 11.0mph /  17.7km/h 24% 0.00in /  0mm 42.0 W/m2
18:15 82.4 °F /  28 °C 43.0 °F /  6.1 °C 29.63in /  1003.3hPa NNW 2.9mph /  4.7km/h 13.0mph /  20.9km/h 25% 0.00in /  0mm 44.0 W/m2
18:20 82.0 °F /  27.8 °C 42.8 °F /  6 °C 29.64in /  1003.6hPa NNW 2.9mph /  4.7km/h 9.0mph /  14.5km/h 25% 0.00in /  0mm 54.0 W/m2
18:25 81.9 °F /  27.7 °C 42.6 °F /  5.9 °C 29.64in /  1003.6hPa NNE 8.9mph /  14.3km/h 10.0mph /  16.1km/h 25% 0.00in /  0mm 53.0 W/m2
18:30 81.5 °F /  27.5 °C 43.3 °F /  6.3 °C 29.64in /  1003.6hPa NNE 6.0mph /  9.7km/h 8.0mph /  12.9km/h 26% 0.00in /  0mm 44.0 W/m2
18:35 81.3 °F /  27.4 °C 43.2 °F /  6.2 °C 29.64in /  1003.6hPa North 4.9mph /  7.9km/h 9.0mph /  14.5km/h 26% 0.00in /  0mm 30.0 W/m2
18:41 81.1 °F /  27.3 °C 43.0 °F /  6.1 °C 29.65in /  1003.9hPa NNW 4.9mph /  7.9km/h 8.0mph /  12.9km/h 26% 0.00in /  0mm 16.0 W/m2
18:46 81.0 °F /  27.2 °C 42.8 °F /  6 °C 29.65in /  1003.9hPa North 6.0mph /  9.7km/h 7.0mph /  11.3km/h 26% 0.00in /  0mm 9.0 W/m2
18:51 80.8 °F /  27.1 °C 43.7 °F /  6.5 °C 29.66in /  1004.3hPa NNW 6.9mph /  11.1km/h 9.0mph /  14.5km/h 27% 0.00in /  0mm 5.0 W/m2
18:56 80.6 °F /  27 °C 43.5 °F /  6.4 °C 29.67in /  1004.6hPa NNW 2.0mph /  3.2km/h 5.0mph /  8km/h 27% 0.00in /  0mm 0.0 W/m2
19:01 80.4 °F /  26.9 °C 43.3 °F /  6.3 °C 29.67in /  1004.6hPa North 6.0mph /  9.7km/h 15.0mph /  24.1km/h 27% 0.00in /  0mm 0.0 W/m2
19:06 80.2 °F /  26.8 °C 43.2 °F /  6.2 °C 29.67in /  1004.6hPa Calm   5.0mph /  8km/h 27% 0.00in /  0mm 0.0 W/m2
19:11 80.1 °F /  26.7 °C 43.0 °F /  6.1 °C 29.68in /  1005hPa West 0.9mph /  1.4km/h 9.0mph /  14.5km/h 27% 0.00in /  0mm 0.0 W/m2
19:16 80.1 °F /  26.7 °C 43.0 °F /  6.1 °C 29.68in /  1005hPa Calm     27% 0.00in /  0mm 0.0 W/m2
19:21 79.9 °F /  26.6 °C 43.9 °F /  6.6 °C 29.68in /  1005hPa Calm   1.0mph /  1.6km/h 28% 0.00in /  0mm 0.0 W/m2
19:27 79.9 °F /  26.6 °C 43.9 °F /  6.6 °C 29.68in /  1005hPa Calm   1.0mph /  1.6km/h 28% 0.00in /  0mm 0.0 W/m2
19:32 79.7 °F /  26.5 °C 41.7 °F /  5.4 °C 29.68in /  1005hPa West 2.0mph /  3.2km/h 3.0mph /  4.8km/h 26% 0.00in /  0mm 0.0 W/m2
19:37 79.5 °F /  26.4 °C 40.6 °F /  4.8 °C 29.68in /  1005hPa WSW 0.9mph /  1.4km/h 3.0mph /  4.8km/h 25% 0.00in /  0mm 0.0 W/m2
19:42 79.2 °F /  26.2 °C 40.3 °F /  4.6 °C 29.69in /  1005.3hPa West 2.0mph /  3.2km/h 5.0mph /  8km/h 25% 0.00in /  0mm 0.0 W/m2
19:47 79.0 °F /  26.1 °C 40.1 °F /  4.5 °C 29.69in /  1005.3hPa West 0.9mph /  1.4km/h 4.0mph /  6.4km/h 25% 0.00in /  0mm 0.0 W/m2
19:52 79.0 °F /  26.1 °C 41.2 °F /  5.1 °C 29.69in /  1005.3hPa Calm   2.0mph /  3.2km/h 26% 0.00in /  0mm 0.0 W/m2
19:57 78.6 °F /  25.9 °C 40.8 °F /  4.9 °C 29.70in /  1005.6hPa SW 0.9mph /  1.4km/h 5.0mph /  8km/h 26% 0.00in /  0mm 0.0 W/m2
20:02 78.4 °F /  25.8 °C 40.6 °F /  4.8 °C 29.70in /  1005.6hPa SW 0.9mph /  1.4km/h 6.0mph /  9.7km/h 26% 0.00in /  0mm 0.0 W/m2
20:07 78.4 °F /  25.8 °C 40.6 °F /  4.8 °C 29.70in /  1005.6hPa Calm   6.0mph /  9.7km/h 26% 0.00in /  0mm 0.0 W/m2
20:13 78.3 °F /  25.7 °C 40.6 °F /  4.8 °C 29.71in /  1006hPa South 2.0mph /  3.2km/h 5.0mph /  8km/h 26% 0.00in /  0mm 0.0 W/m2
20:18 78.3 °F /  25.7 °C 40.6 °F /  4.8 °C 29.71in /  1006hPa SW 0.9mph /  1.4km/h 5.0mph /  8km/h 26% 0.00in /  0mm 0.0 W/m2
20:23 78.1 °F /  25.6 °C 40.5 °F /  4.7 °C 29.71in /  1006hPa SW 2.0mph /  3.2km/h 8.0mph /  12.9km/h 26% 0.00in /  0mm 0.0 W/m2
20:28 77.7 °F /  25.4 °C 42.1 °F /  5.6 °C 29.72in /  1006.3hPa SSW 2.9mph /  4.7km/h 12.0mph /  19.3km/h 28% 0.00in /  0mm 0.0 W/m2
20:33 77.2 °F /  25.1 °C 42.4 °F /  5.8 °C 29.72in /  1006.3hPa South 4.0mph /  6.4km/h 7.0mph /  11.3km/h 29% 0.00in /  0mm 0.0 W/m2
20:38 76.5 °F /  24.7 °C 42.8 °F /  6 °C 29.72in /  1006.3hPa SSE 4.9mph /  7.9km/h 9.0mph /  14.5km/h 30% 0.00in /  0mm 0.0 W/m2
20:43 75.7 °F /  24.3 °C 43.0 °F /  6.1 °C 29.72in /  1006.3hPa South 6.9mph /  11.1km/h 9.0mph /  14.5km/h 31% 0.00in /  0mm 0.0 W/m2
20:48 75.4 °F /  24.1 °C 43.5 °F /  6.4 °C 29.72in /  1006.3hPa SSW 2.0mph /  3.2km/h 6.0mph /  9.7km/h 32% 0.00in /  0mm 0.0 W/m2
20:54 74.8 °F /  23.8 °C 43.0 °F /  6.1 °C 29.73in /  1006.7hPa Calm   2.0mph /  3.2km/h 32% 0.00in /  0mm 0.0 W/m2
20:59 74.7 °F /  23.7 °C 42.8 °F /  6 °C 29.73in /  1006.7hPa SSE 4.0mph /  6.4km/h 8.0mph /  12.9km/h 32% 0.00in /  0mm 0.0 W/m2
21:05 74.7 °F /  23.7 °C 42.8 °F /  6 °C 29.73in /  1006.7hPa South 0.9mph /  1.4km/h 1.0mph /  1.6km/h 32% 0.00in /  0mm 0.0 W/m2
21:10 74.5 °F /  23.6 °C 42.6 °F /  5.9 °C 29.73in /  1006.7hPa Calm   1.0mph /  1.6km/h 32% 0.00in /  0mm 0.0 W/m2
21:15 74.5 °F /  23.6 °C 42.6 °F /  5.9 °C 29.73in /  1006.7hPa Calm     32% 0.00in /  0mm 0.0 W/m2
21:20 74.5 °F /  23.6 °C 42.6 °F /  5.9 °C 29.73in /  1006.7hPa Calm   2.0mph /  3.2km/h 32% 0.00in /  0mm 0.0 W/m2
21:25 74.1 °F /  23.4 °C 42.4 °F /  5.8 °C 29.73in /  1006.7hPa Calm   1.0mph /  1.6km/h 32% 0.00in /  0mm 0.0 W/m2
21:30 74.1 °F /  23.4 °C 43.2 °F /  6.2 °C 29.73in /  1006.7hPa Calm     33% 0.00in /  0mm 0.0 W/m2
21:35 74.1 °F /  23.4 °C 43.2 °F /  6.2 °C 29.73in /  1006.7hPa Calm     33% 0.00in /  0mm 0.0 W/m2
21:40 74.1 °F /  23.4 °C 43.2 °F /  6.2 °C 29.73in /  1006.7hPa Calm     33% 0.00in /  0mm 0.0 W/m2
21:45 74.1 °F /  23.4 °C 43.2 °F /  6.2 °C 29.74in /  1007hPa Calm   2.0mph /  3.2km/h 33% 0.00in /  0mm 0.0 W/m2
21:50 74.1 °F /  23.4 °C 43.2 °F /  6.2 °C 29.74in /  1007hPa WSW 0.9mph /  1.4km/h 1.0mph /  1.6km/h 33% 0.00in /  0mm 0.0 W/m2
21:56 74.1 °F /  23.4 °C 43.2 °F /  6.2 °C 29.74in /  1007hPa WSW 0.9mph /  1.4km/h 2.0mph /  3.2km/h 33% 0.00in /  0mm 0.0 W/m2
22:01 74.1 °F /  23.4 °C 43.9 °F /  6.6 °C 29.74in /  1007hPa Calm   1.0mph /  1.6km/h 34% 0.00in /  0mm 0.0 W/m2
22:06 74.1 °F /  23.4 °C 43.9 °F /  6.6 °C 29.75in /  1007.3hPa Calm   1.0mph /  1.6km/h 34% 0.00in /  0mm 0.0 W/m2
22:11 74.1 °F /  23.4 °C 43.9 °F /  6.6 °C 29.75in /  1007.3hPa Calm     34% 0.00in /  0mm 0.0 W/m2
22:16 73.9 °F /  23.3 °C 43.9 °F /  6.6 °C 29.75in /  1007.3hPa WNW 0.9mph /  1.4km/h 2.0mph /  3.2km/h 34% 0.00in /  0mm 0.0 W/m2
22:21 73.9 °F /  23.3 °C 42.3 °F /  5.7 °C 29.75in /  1007.3hPa WSW 2.0mph /  3.2km/h 2.0mph /  3.2km/h 32% 0.00in /  0mm 0.0 W/m2
22:26 73.9 °F /  23.3 °C 42.3 °F /  5.7 °C 29.75in /  1007.3hPa SSW 0.9mph /  1.4km/h 3.0mph /  4.8km/h 32% 0.00in /  0mm 0.0 W/m2
22:31 73.9 °F /  23.3 °C 42.3 °F /  5.7 °C 29.75in /  1007.3hPa Calm   3.0mph /  4.8km/h 32% 0.00in /  0mm 0.0 W/m2
22:36 73.9 °F /  23.3 °C 43.0 °F /  6.1 °C 29.75in /  1007.3hPa Calm     33% 0.00in /  0mm 0.0 W/m2
22:42 73.9 °F /  23.3 °C 44.6 °F /  7 °C 29.75in /  1007.3hPa Calm     35% 0.00in /  0mm 0.0 W/m2
22:47 73.8 °F /  23.2 °C 44.4 °F /  6.9 °C 29.75in /  1007.3hPa Calm   1.0mph /  1.6km/h 35% 0.00in /  0mm 0.0 W/m2
22:53 73.6 °F /  23.1 °C 43.5 °F /  6.4 °C 29.75in /  1007.3hPa Calm     34% 0.00in /  0mm 0.0 W/m2
22:58 73.6 °F /  23.1 °C 43.5 °F /  6.4 °C 29.75in /  1007.3hPa Calm     34% 0.00in /  0mm 0.0 W/m2
23:04 73.2 °F /  22.9 °C 43.2 °F /  6.2 °C 29.75in /  1007.3hPa Calm     34% 0.00in /  0mm 0.0 W/m2
23:09 73.2 °F /  22.9 °C 42.4 °F /  5.8 °C 29.75in /  1007.3hPa Calm   1.0mph /  1.6km/h 33% 0.00in /  0mm 0.0 W/m2
23:14 73.2 °F /  22.9 °C 42.4 °F /  5.8 °C 29.75in /  1007.3hPa Calm     33% 0.00in /  0mm 0.0 W/m2
23:19 73.0 °F /  22.8 °C 42.3 °F /  5.7 °C 29.75in /  1007.3hPa Calm     33% 0.00in /  0mm 0.0 W/m2
23:24 73.0 °F /  22.8 °C 42.3 °F /  5.7 °C 29.75in /  1007.3hPa Calm     33% 0.00in /  0mm 0.0 W/m2
23:25 73.0 °F /  22.8 °C 42.3 °F /  5.7 °C 29.75in /  1007.3hPa Calm     33% 0.00in /  0mm 0.0 W/m2
23:30 73.0 °F /  22.8 °C 42.3 °F /  5.7 °C 29.74in /  1007hPa Calm     33% 0.00in /  0mm 0.0 W/m2
23:35 72.9 °F /  22.7 °C 42.1 °F /  5.6 °C 29.75in /  1007.3hPa Calm   1.0mph /  1.6km/h 33% 0.00in /  0mm 0.0 W/m2
23:40 72.9 °F /  22.7 °C 42.1 °F /  5.6 °C 29.74in /  1007hPa Calm   1.0mph /  1.6km/h 33% 0.00in /  0mm 0.0 W/m2
23:45 72.9 °F /  22.7 °C 42.1 °F /  5.6 °C 29.74in /  1007hPa Calm   1.0mph /  1.6km/h 33% 0.00in /  0mm 0.0 W/m2
23:50 72.9 °F /  22.7 °C 42.1 °F /  5.6 °C 29.74in /  1007hPa NE 2.9mph /  4.7km/h 4.0mph /  6.4km/h 33% 0.00in /  0mm 0.0 W/m2
23:55 72.7 °F /  22.6 °C 42.6 °F /  5.9 °C 29.74in /  1007hPa NE 2.0mph /  3.2km/h 4.0mph /  6.4km/h 34% 0.00in /  0mm 0.0 W/m2
Olympia, Windhoek, Namibia
Compliments of Weather Underground - 3.25 mb